Pagrindinis puslapis
METAR-TAF:

METAR-TAF

Oro uostai :

Monte Cimone, Italija

platuma: 44-12N, ilguma: 010-42E, Aukštis: 2165 m

Dabartinis oras

Ataskaita buvo paskelbta 38 minutes, ne 10:55 UTC
Vėjas 2 kt iš Pietvakarių
Temperatūra 12°C
Drėgmė 50%
Slėgis 1029 hPa
Matomumas 10 km arba daugiau
nėra debesų žemiau 1500 m ir nėra kamuolinių lietaus debesų

METAR: LIVC 211055Z 23002KT CAVOK 12/02 Q1029 RMK SKC MON LIB VAL NIL VIS MIN 9999

Laikas: 13:33 (11:33 UTC)


TAF: trūkstamas

Orai ataskaitas ir orų prognozės (METAR, TAF).

turimą stotys yra geltonos ir raudonos taškus žemėlapyje.

Perkelti pele per norėdami pamatyti stoties vardą.

Tada spustelėkite, norėdami matyti oro stebėjimo ir prognozės.

Norėdami pakeisti žemėlapį: spustelėkite ant žalios mygtukų su juodo kryžiaus žemyn,; žalią mygtuką su brūkšneliu, jei norite nutolinti; arba žalių rodyklių gretimoms žemėlapius.


METAR-TAF: